Time;durP1;ratioP1;P1;durP2;ratioP2;P2;SDS_P1;SDS_P2;PMS_P1;PMS_P2;Temp;Humidity;BMP_temperature;BMP_pressure;BME280_temperature;BME280_humidity;BME280_pressure;Samples;Min_cycle;Max_cycle;Signal;HPM_P1;HPM_P2
2022/07/19 00:02:05;;;;;;;;;;;;;;;25.16;35.16;100783.28;4930395;28;6987;-80
2022/07/19 00:04:33;;;;;;;;;;;;;;;25.15;34.22;100791.16;4928489;28;7209;-80
2022/07/19 00:06:58;;;;;;;;;;;;;;;25.10;34.54;100785.94;4929291;28;7240;-80
2022/07/19 00:09:25;;;;;;;;;;;;;;;25.04;35.10;100789.47;4944314;28;9487;-80
2022/07/19 00:11:51;;;;;;;;;;;;;;;25.00;34.63;100792.97;4956653;28;6991;-81
2022/07/19 00:14:18;;;;;;;;;;;;;;;24.97;35.04;100785.13;4928954;28;8487;-81
2022/07/19 00:16:43;;;;;;;;;;;;;;;24.93;35.04;100786.03;4927666;28;6793;-80
2022/07/19 00:19:09;;;;;;;;;;;;;;;24.89;34.55;100785.19;4929205;28;6784;-80
2022/07/19 00:21:35;;;;;;;;;;;;;;;24.85;35.08;100783.44;4925975;28;6967;-80
2022/07/19 00:24:00;;;;;;;;;;;;;;;24.79;35.35;100784.34;4955025;28;6791;-80
2022/07/19 00:26:27;;;;;;;;;;;;;;;24.75;35.53;100787.84;4941402;28;8619;-80
2022/07/19 00:28:54;;;;;;;;;;;;;;;24.69;35.88;100783.50;4917381;28;6981;-80
2022/07/19 00:31:24;;;;;;;;;;;;;;;24.61;35.92;100781.78;4936765;28;7340;-81
2022/07/19 00:33:51;;;;;;;;;;;;;;;24.59;36.26;100775.69;4919960;28;6958;-80
2022/07/19 00:36:18;;;;;;;;;;;;;;;24.55;36.25;100774.81;4953451;28;6784;-81
2022/07/19 00:38:44;;;;;;;;;;;;;;;24.54;36.19;100771.34;4927287;28;7378;-80
2022/07/19 00:41:10;;;;;;;;;;;;;;;24.52;35.87;100770.44;4942981;28;6780;-80
2022/07/19 00:43:40;;;;;;;;;;;;;;;24.50;35.89;100771.38;4939504;28;8211;-80
2022/07/19 00:46:21;;;;;;;;;;;;;;;24.49;36.20;100765.25;4953592;28;7220;-80
2022/07/19 00:48:50;;;;;;;;;;;;;;;24.49;35.98;100764.38;4914176;28;7468;-80
2022/07/19 00:51:18;;;;;;;;;;;;;;;24.47;36.25;100767.00;4929104;28;7244;-80
2022/07/19 00:53:45;;;;;;;;;;;;;;;24.44;35.64;100767.03;4957297;28;6983;-80
2022/07/19 00:56:15;;;;;;;;;;;;;;;24.42;36.29;100763.50;4943678;28;7319;-80
2022/07/19 00:58:42;;;;;;;;;;;;;;;24.39;36.28;100753.06;4930380;28;6796;-80
2022/07/19 01:01:10;;;;;;;;;;;;;;;24.36;36.40;100758.31;4938563;28;7032;-80
2022/07/19 01:03:39;;;;;;;;;;;;;;;24.33;37.08;100753.94;4955696;28;7164;-80
2022/07/19 01:06:08;;;;;;;;;;;;;;;24.29;36.38;100752.22;4940687;28;7183;-80
2022/07/19 01:08:36;;;;;;;;;;;;;;;24.25;36.75;100754.00;4916013;28;7081;-80
2022/07/19 01:11:05;;;;;;;;;;;;;;;24.24;36.63;100747.00;4954454;28;6792;-80
2022/07/19 01:13:32;;;;;;;;;;;;;;;24.23;36.49;100749.63;4927455;28;7202;-80
2022/07/19 01:15:58;;;;;;;;;;;;;;;24.21;36.77;100746.16;4950117;28;7203;-80
2022/07/19 01:18:24;;;;;;;;;;;;;;;24.21;36.29;100739.13;4950046;28;6800;-80
2022/07/19 01:20:52;;;;;;;;;;;;;;;24.21;36.59;100739.13;4954061;28;6835;-80
2022/07/19 01:23:17;;;;;;;;;;;;;;;24.20;36.97;100747.03;4952938;28;7090;-80
2022/07/19 01:25:43;;;;;;;;;;;;;;;24.19;37.02;100735.66;4908033;28;6992;-80
2022/07/19 01:28:09;;;;;;;;;;;;;;;24.18;36.81;100733.94;4957127;28;6795;-81
2022/07/19 01:30:36;;;;;;;;;;;;;;;24.19;37.06;100740.91;4934695;28;7245;-80
2022/07/19 01:33:03;;;;;;;;;;;;;;;24.19;37.12;100734.78;4942995;28;6959;-80
2022/07/19 01:35:29;;;;;;;;;;;;;;;24.18;37.07;100739.16;4936454;28;8422;-80
2022/07/19 01:37:55;;;;;;;;;;;;;;;24.18;37.26;100736.53;4953546;28;7059;-80
2022/07/19 01:40:22;;;;;;;;;;;;;;;24.18;37.12;100739.16;4934044;28;6999;-80
2022/07/19 01:42:49;;;;;;;;;;;;;;;24.19;37.06;100735.66;4926282;28;6853;-80
2022/07/19 01:45:16;;;;;;;;;;;;;;;24.18;37.11;100733.94;4931304;28;6860;-80
2022/07/19 01:47:43;;;;;;;;;;;;;;;24.19;37.21;100734.78;4954467;28;8157;-80
2022/07/19 01:50:12;;;;;;;;;;;;;;;24.18;37.28;100733.03;4951089;28;6820;-80
2022/07/19 01:52:38;;;;;;;;;;;;;;;24.16;37.64;100732.19;4924936;28;6856;-80
2022/07/19 01:55:05;;;;;;;;;;;;;;;24.15;37.41;100733.94;4926092;29;6836;-80
2022/07/19 01:57:32;;;;;;;;;;;;;;;24.12;37.72;100723.47;4942068;28;8383;-80
2022/07/19 01:59:58;;;;;;;;;;;;;;;24.11;37.63;100721.72;4914280;28;7276;-80
2022/07/19 02:02:24;;;;;;;;;;;;;;;24.11;37.46;100719.09;4945166;28;6785;-80
2022/07/19 02:04:49;;;;;;;;;;;;;;;24.09;37.51;100718.25;4926044;28;6769;-80
2022/07/19 02:07:15;;;;;;;;;;;;;;;24.08;37.79;100716.50;4923594;28;6780;-80
2022/07/19 02:09:43;;;;;;;;;;;;;;;24.07;37.56;100720.00;4917850;28;8590;-80
2022/07/19 02:12:10;;;;;;;;;;;;;;;24.06;37.85;100713.88;4921321;28;7022;-80
2022/07/19 02:14:35;;;;;;;;;;;;;;;24.07;37.42;100714.78;4916184;28;8445;-80
2022/07/19 02:17:02;;;;;;;;;;;;;;;24.06;37.79;100713.88;4906182;28;7047;-80
2022/07/19 02:19:27;;;;;;;;;;;;;;;24.04;37.87;100710.41;4930156;28;7219;-80
2022/07/19 02:21:53;;;;;;;;;;;;;;;24.04;37.72;100712.09;4951479;28;6942;-80
2022/07/19 02:24:18;;;;;;;;;;;;;;;24.01;37.67;100710.41;4923182;29;8577;-80
2022/07/19 02:26:45;;;;;;;;;;;;;;;23.99;37.71;100707.78;4951095;28;6851;-80
2022/07/19 02:29:11;;;;;;;;;;;;;;;23.98;37.87;100703.41;4941772;28;7267;-80
2022/07/19 02:31:36;;;;;;;;;;;;;;;23.98;37.89;100711.25;4937909;28;7219;-80
2022/07/19 02:34:02;;;;;;;;;;;;;;;23.99;37.66;100714.72;4924449;29;6983;-80
2022/07/19 02:36:28;;;;;;;;;;;;;;;23.99;37.53;100715.63;4943513;28;7235;-81
2022/07/19 02:38:54;;;;;;;;;;;;;;;24.00;37.99;100713.88;4944043;28;8501;-81
2022/07/19 02:41:19;;;;;;;;;;;;;;;24.00;37.74;100712.13;4928686;29;6871;-81
2022/07/19 02:43:45;;;;;;;;;;;;;;;23.98;38.44;100713.00;4941650;28;7246;-81
2022/07/19 02:46:11;;;;;;;;;;;;;;;23.94;38.20;100717.38;4940310;28;6969;-81
2022/07/19 02:48:37;;;;;;;;;;;;;;;23.89;38.65;100711.28;4927277;28;7174;-80
2022/07/19 02:51:03;;;;;;;;;;;;;;;23.86;38.27;100708.69;4952890;28;7098;-80
2022/07/19 02:53:29;;;;;;;;;;;;;;;23.81;38.69;100708.69;4952487;28;7200;-80
2022/07/19 02:55:54;;;;;;;;;;;;;;;23.76;38.68;100702.59;4957099;28;6784;-80
2022/07/19 02:58:20;;;;;;;;;;;;;;;23.70;38.45;100710.44;4956583;28;6991;-80
2022/07/19 03:00:45;;;;;;;;;;;;;;;23.67;38.85;100715.69;4915434;28;6970;-82
2022/07/19 03:05:56;;;;;;;;;;;;;;;23.53;39.28;100710.47;4953934;28;6979;-83
2022/07/19 03:08:21;;;;;;;;;;;;;;;23.49;39.16;100709.59;4958020;28;7159;-83
2022/07/19 03:10:47;;;;;;;;;;;;;;;23.46;39.41;100711.34;4956611;28;7226;-83
2022/07/19 03:13:13;;;;;;;;;;;;;;;23.41;39.41;100714.84;4950287;28;7094;-83
2022/07/19 03:15:39;;;;;;;;;;;;;;;23.36;39.46;100719.19;4931961;28;6846;-82
2022/07/19 03:18:06;;;;;;;;;;;;;;;23.28;39.84;100726.19;4944906;28;7275;-82
2022/07/19 03:20:32;;;;;;;;;;;;;;;23.22;39.58;100721.75;4926950;28;7331;-83
2022/07/19 03:22:58;;;;;;;;;;;;;;;23.15;39.42;100714.81;4961113;28;7141;-83
2022/07/19 03:25:24;;;;;;;;;;;;;;;23.12;39.51;100718.28;4942509;28;6776;-83
2022/07/19 03:27:50;;;;;;;;;;;;;;;23.11;39.32;100715.66;4921910;28;7088;-83
2022/07/19 03:30:15;;;;;;;;;;;;;;;23.10;39.78;100721.75;4909086;28;8475;-83
2022/07/19 03:32:41;;;;;;;;;;;;;;;23.06;39.60;100713.03;4953104;28;7078;-83
2022/07/19 03:35:08;;;;;;;;;;;;;;;23.04;39.97;100709.56;4942150;28;7763;-83
2022/07/19 03:37:34;;;;;;;;;;;;;;;23.01;39.70;100715.63;4960847;28;7300;-83
2022/07/19 03:39:59;;;;;;;;;;;;;;;22.96;39.78;100706.06;4936541;28;6951;-83
2022/07/19 03:42:25;;;;;;;;;;;;;;;22.92;39.89;100714.78;4928410;28;6764;-81
2022/07/19 03:44:51;;;;;;;;;;;;;;;22.89;40.22;100716.50;4954680;28;7191;-82
2022/07/19 03:47:16;;;;;;;;;;;;;;;22.88;40.75;100713.88;4913802;28;7072;-81
2022/07/19 03:49:42;;;;;;;;;;;;;;;22.83;40.88;100706.03;4935996;28;10868;-80
2022/07/19 03:52:08;;;;;;;;;;;;;;;22.79;40.77;100704.31;4953801;28;7885;-80
2022/07/19 03:54:33;;;;;;;;;;;;;;;22.76;40.89;100709.50;4913938;28;6929;-80
2022/07/19 03:56:59;;;;;;;;;;;;;;;22.75;40.96;100718.22;4952774;28;7367;-80
2022/07/19 03:59:25;;;;;;;;;;;;;;;22.72;40.96;100710.38;4926588;28;7341;-80
2022/07/19 04:01:51;;;;;;;;;;;;;;;22.71;40.58;100713.84;4932807;28;6764;-80
2022/07/19 04:04:17;;;;;;;;;;;;;;;22.74;40.55;100716.47;4912720;28;8512;-80
2022/07/19 04:06:43;;;;;;;;;;;;;;;22.76;40.36;100714.72;4925876;28;7857;-81
2022/07/19 04:09:09;;;;;;;;;;;;;;;22.78;40.68;100718.22;4956328;28;6779;-81
2022/07/19 04:11:35;;;;;;;;;;;;;;;22.81;40.89;100709.50;4932693;28;6980;-81
2022/07/19 04:14:02;;;;;;;;;;;;;;;22.84;40.88;100704.28;4918547;28;7001;-80
2022/07/19 04:16:29;;;;;;;;;;;;;;;22.86;40.82;100713.88;4925518;28;7038;-80
2022/07/19 04:18:54;;;;;;;;;;;;;;;22.89;40.84;100710.41;4951929;28;6864;-80
2022/07/19 04:21:20;;;;;;;;;;;;;;;22.93;40.90;100703.44;4932045;28;6845;-80
2022/07/19 04:23:46;;;;;;;;;;;;;;;22.92;41.13;100701.72;4948762;28;7312;-80
2022/07/19 04:26:12;;;;;;;;;;;;;;;22.92;41.17;100712.16;4944816;28;7062;-80
2022/07/19 04:28:37;;;;;;;;;;;;;;;22.97;41.14;100707.78;4948742;28;7249;-80
2022/07/19 04:31:03;;;;;;;;;;;;;;;23.05;41.45;100711.28;4926955;28;6947;-80
2022/07/19 04:33:29;;;;;;;;;;;;;;;23.17;41.44;100708.69;4935826;28;7845;-83
2022/07/19 04:35:55;;;;;;;;;;;;;;;23.34;41.90;100707.84;4959367;28;7160;-81
2022/07/19 04:38:21;;;;;;;;;;;;;;;23.52;41.64;100711.34;4950319;28;8736;-81
2022/07/19 04:40:47;;;;;;;;;;;;;;;23.71;41.99;100705.22;4936693;28;7629;-81
2022/07/19 04:43:13;;;;;;;;;;;;;;;23.92;42.40;100706.03;4937504;28;6854;-81
2022/07/19 04:45:41;;;;;;;;;;;;;;;24.15;41.45;100707.75;4934427;28;7159;-81
2022/07/19 04:48:08;;;;;;;;;;;;;;;24.37;41.47;100703.28;4958926;28;6876;-81
2022/07/19 04:50:33;;;;;;;;;;;;;;;24.61;41.73;100703.16;4958983;28;6988;-81
2022/07/19 04:52:59;;;;;;;;;;;;;;;24.86;41.22;100709.16;4964284;28;7216;-81
2022/07/19 04:55:25;;;;;;;;;;;;;;;25.13;41.48;100709.00;4958143;28;7242;-81
2022/07/19 04:57:50;;;;;;;;;;;;;;;25.40;41.08;100701.75;4916726;28;6966;-81
2022/07/19 05:00:16;;;;;;;;;;;;;;;25.65;40.45;100695.44;4914300;28;8465;-81
2022/07/19 05:02:42;;;;;;;;;;;;;;;25.91;39.66;100706.56;4950114;28;6935;-81
2022/07/19 05:05:09;;;;;;;;;;;;;;;26.09;39.54;100701.97;4949456;28;6804;-81
2022/07/19 05:07:35;;;;;;;;;;;;;;;26.26;39.17;100700.06;4935895;28;8199;-81
2022/07/19 05:10:00;;;;;;;;;;;;;;;26.42;38.93;100695.47;4943888;28;8269;-81
2022/07/19 05:12:26;;;;;;;;;;;;;;;26.65;38.37;100691.63;4947285;28;7414;-81
2022/07/19 05:14:52;;;;;;;;;;;;;;;26.88;38.04;100701.00;4948477;28;7256;-81
2022/07/19 05:17:17;;;;;;;;;;;;;;;27.11;37.92;100686.59;4957140;28;6963;-81
2022/07/19 05:19:43;;;;;;;;;;;;;;;27.36;37.09;100694.94;4925158;28;7045;-82
2022/07/19 05:22:09;;;;;;;;;;;;;;;27.61;36.78;100689.28;4944427;28;6970;-81
2022/07/19 05:24:34;;;;;;;;;;;;;;;27.85;36.94;100695.84;4946908;28;7201;-81
2022/07/19 05:27:00;;;;;;;;;;;;;;;28.08;37.13;100694.50;4956443;28;7319;-81
2022/07/19 05:29:25;;;;;;;;;;;;;;;28.31;36.99;100692.34;4915065;28;7290;-81
2022/07/19 05:31:51;;;;;;;;;;;;;;;28.51;36.60;100697.19;4936625;28;7375;-82
2022/07/19 05:34:17;;;;;;;;;;;;;;;28.65;36.35;100705.63;4955330;28;6943;-81
2022/07/19 05:36:42;;;;;;;;;;;;;;;28.74;35.68;100699.28;4958529;28;6768;-81
2022/07/19 05:39:08;;;;;;;;;;;;;;;28.83;35.18;100706.16;4929720;28;7007;-81
2022/07/19 05:41:34;;;;;;;;;;;;;;;28.93;35.79;100704.16;4960208;28;7040;-81
2022/07/19 05:44:00;;;;;;;;;;;;;;;29.05;35.45;100702.97;4915434;28;7265;-81
2022/07/19 05:46:25;;;;;;;;;;;;;;;29.23;35.07;100697.25;4940516;28;7164;-81
2022/07/19 05:48:52;;;;;;;;;;;;;;;29.36;35.41;100691.69;4945872;28;6960;-81
2022/07/19 05:51:17;;;;;;;;;;;;;;;29.47;35.44;100699.31;4955822;28;8274;-81
2022/07/19 05:53:43;;;;;;;;;;;;;;;29.58;34.74;100696.41;4928878;28;6969;-81
2022/07/19 05:56:09;;;;;;;;;;;;;;;29.61;34.27;100701.59;4925753;28;6955;-81
2022/07/19 05:58:35;;;;;;;;;;;;;;;29.56;34.45;100703.50;4961122;28;7078;-80
2022/07/19 06:01:19;;;;;;;;;;;;;;;29.45;33.97;100709.91;4957853;28;6982;-81
2022/07/19 06:03:55;;;;;;;;;;;;;;;29.31;34.26;100712.03;4930856;28;7829;-81
2022/07/19 06:06:23;;;;;;;;;;;;;;;29.21;34.48;100712.25;4913805;28;7504;-81
2022/07/19 06:08:50;;;;;;;;;;;;;;;29.11;34.56;100716.03;4922085;28;8453;-80
2022/07/19 06:11:16;;;;;;;;;;;;;;;29.04;35.01;100711.81;4924922;28;7326;-81
2022/07/19 06:13:45;;;;;;;;;;;;;;;28.98;34.73;100710.19;4948213;28;9666;-80
2022/07/19 06:16:11;;;;;;;;;;;;;;;28.93;34.83;100712.94;4956932;28;7016;-80
2022/07/19 06:18:38;;;;;;;;;;;;;;;28.92;34.71;100711.19;4945994;28;8531;-80
2022/07/19 06:21:08;;;;;;;;;;;;;;;28.92;35.34;100712.97;4939065;28;6999;-81
2022/07/19 06:23:35;;;;;;;;;;;;;;;28.92;35.28;100713.84;4955072;28;7074;-81
2022/07/19 06:26:01;;;;;;;;;;;;;;;28.96;35.73;100715.47;4906584;28;7255;-81
2022/07/19 06:28:27;;;;;;;;;;;;;;;29.02;35.05;100713.63;4959537;28;7004;-81
2022/07/19 06:30:53;;;;;;;;;;;;;;;29.08;35.15;100713.47;4928714;28;7156;-81
2022/07/19 06:33:19;;;;;;;;;;;;;;;29.16;34.86;100711.50;4962270;28;7002;-80
2022/07/19 06:35:45;;;;;;;;;;;;;;;29.27;34.87;100707.75;4960823;28;7184;-81
2022/07/19 06:38:12;;;;;;;;;;;;;;;29.36;35.64;100715.44;4955108;28;7151;-81
2022/07/19 06:40:37;;;;;;;;;;;;;;;29.48;35.25;100708.97;4949027;28;6982;-81
2022/07/19 06:43:03;;;;;;;;;;;;;;;29.57;34.98;100699.97;4931601;28;6784;-81
2022/07/19 06:45:29;;;;;;;;;;;;;;;29.66;35.17;100705.00;4942410;28;7888;-80
2022/07/19 06:47:54;;;;;;;;;;;;;;;29.73;35.39;100703.06;4943268;28;7045;-81
2022/07/19 06:50:21;;;;;;;;;;;;;;;29.80;34.87;100692.25;4943863;28;7031;-80
2022/07/19 06:52:47;;;;;;;;;;;;;;;29.93;33.95;100705.13;4930975;28;6800;-80
2022/07/19 06:55:13;;;;;;;;;;;;;;;30.02;34.18;100690.78;4940973;28;7177;-80
2022/07/19 06:57:39;;;;;;;;;;;;;;;30.14;34.53;100703.69;4929924;28;7789;-81
2022/07/19 07:00:09;;;;;;;;;;;;;;;30.25;34.23;100703.38;4934123;28;6978;-80
2022/07/19 07:02:37;;;;;;;;;;;;;;;30.34;34.00;100703.09;4917391;28;7294;-80
2022/07/19 07:05:05;;;;;;;;;;;;;;;30.45;33.58;100693.97;4929482;28;6796;-81
2022/07/19 07:07:30;;;;;;;;;;;;;;;30.57;33.48;100698.88;4951440;28;7091;-80
2022/07/19 07:09:56;;;;;;;;;;;;;;;30.75;33.14;100702.75;4956928;28;7077;-80
2022/07/19 07:12:22;;;;;;;;;;;;;;;31.05;33.31;100704.44;4941718;28;7205;-80
2022/07/19 07:14:47;;;;;;;;;;;;;;;31.42;32.53;100705.88;4921069;28;7294;-80
2022/07/19 07:17:13;;;;;;;;;;;;;;;31.87;32.78;100703.47;4936019;28;6977;-80
2022/07/19 07:19:39;;;;;;;;;;;;;;;32.33;31.84;100705.28;4957241;28;7007;-81
2022/07/19 07:22:04;;;;;;;;;;;;;;;32.78;31.41;100703.56;4949309;28;7660;-81
2022/07/19 07:24:30;;;;;;;;;;;;;;;33.19;30.57;100700.16;4947901;28;7245;-80
2022/07/19 07:26:56;;;;;;;;;;;;;;;33.54;29.83;100700.47;4958971;28;6991;-81
2022/07/19 07:29:21;;;;;;;;;;;;;;;33.92;29.37;100694.34;4941880;28;6776;-81
2022/07/19 07:31:47;;;;;;;;;;;;;;;34.27;28.80;100693.66;4959092;28;7195;-81
2022/07/19 07:34:13;;;;;;;;;;;;;;;34.60;28.88;100695.69;4946667;28;7296;-81
2022/07/19 07:36:39;;;;;;;;;;;;;;;34.90;27.91;100698.63;4958427;28;6845;-81
2022/07/19 07:39:05;;;;;;;;;;;;;;;35.15;27.71;100701.88;4943282;28;7226;-81
2022/07/19 07:41:30;;;;;;;;;;;;;;;35.42;27.71;100698.72;4945921;28;6945;-81
2022/07/19 07:43:56;;;;;;;;;;;;;;;35.65;27.06;100686.88;4942507;28;8010;-81
2022/07/19 07:46:22;;;;;;;;;;;;;;;35.88;26.43;100686.59;4917853;28;8455;-81
2022/07/19 07:48:47;;;;;;;;;;;;;;;36.04;26.06;100687.47;4946418;28;6955;-81
2022/07/19 07:51:13;;;;;;;;;;;;;;;36.23;26.36;100689.16;4943801;28;6772;-81
2022/07/19 07:53:39;;;;;;;;;;;;;;;36.36;25.19;100689.31;4945026;28;8759;-81
2022/07/19 07:56:04;;;;;;;;;;;;;;;36.48;25.29;100682.41;4943893;28;6928;-81
2022/07/19 07:58:30;;;;;;;;;;;;;;;36.63;24.79;100683.38;4953622;28;6764;-81
2022/07/19 08:00:56;;;;;;;;;;;;;;;36.74;24.33;100686.28;4940181;28;6959;-81
2022/07/19 08:03:21;;;;;;;;;;;;;;;36.89;24.76;100684.50;4918878;28;7457;-81
2022/07/19 08:05:48;;;;;;;;;;;;;;;37.03;24.24;100681.03;4945732;28;6920;-81
2022/07/19 08:08:17;;;;;;;;;;;;;;;37.20;24.04;100669.38;4952924;28;6979;-81
2022/07/19 08:10:43;;;;;;;;;;;;;;;37.35;23.87;100672.06;4927540;28;6953;-80
2022/07/19 08:13:10;;;;;;;;;;;;;;;37.49;23.57;100665.88;4927674;28;7073;-80
2022/07/19 08:15:37;;;;;;;;;;;;;;;37.63;23.85;100665.03;4951617;28;6983;-80
2022/07/19 08:18:04;;;;;;;;;;;;;;;37.76;23.67;100657.13;4943694;28;6800;-80
2022/07/19 08:20:30;;;;;;;;;;;;;;;37.84;23.63;100662.84;4921248;28;7049;-81
2022/07/19 08:22:56;;;;;;;;;;;;;;;37.93;23.69;100659.59;4911788;28;6989;-81
2022/07/19 08:25:22;;;;;;;;;;;;;;;38.04;23.65;100658.91;4951420;28;6784;-80
2022/07/19 08:27:47;;;;;;;;;;;;;;;38.19;23.38;100661.56;4930295;28;7001;-80
2022/07/19 08:30:14;;;;;;;;;;;;;;;38.39;23.33;100659.41;4910879;28;8515;-81
2022/07/19 08:32:41;;;;;;;;;;;;;;;38.64;22.93;100649.78;4924935;28;11371;-81
2022/07/19 08:35:08;;;;;;;;;;;;;;;38.88;22.82;100648.09;4944165;28;7390;-80
2022/07/19 08:37:35;;;;;;;;;;;;;;;39.17;22.52;100655.97;4907762;28;8558;-80
2022/07/19 08:40:03;;;;;;;;;;;;;;;39.50;22.33;100647.53;4941277;28;6826;-79
2022/07/19 08:42:30;;;;;;;;;;;;;;;39.84;21.92;100645.09;4928013;28;7052;-80
2022/07/19 08:45:02;;;;;;;;;;;;;;;40.23;21.62;100639.66;4950100;28;6967;-80
2022/07/19 08:47:31;;;;;;;;;;;;;;;40.59;21.42;100640.53;4959204;28;8526;-80
2022/07/19 08:49:59;;;;;;;;;;;;;;;40.94;20.94;100637.03;4911050;28;7170;-78
2022/07/19 08:52:25;;;;;;;;;;;;;;;41.32;20.56;100635.00;4920671;28;9640;-77
2022/07/19 08:54:51;;;;;;;;;;;;;;;41.73;20.16;100623.78;4946152;28;8155;-77
2022/07/19 09:00:05;;;;;;;;;;;;;;;42.61;19.47;100626.47;4942114;28;7462;-78
2022/07/19 09:02:30;;;;;;;;;;;;;;;43.04;18.99;100629.16;4926658;28;6987;-78
2022/07/19 09:05:07;;;;;;;;;;;;;;;43.46;18.60;100628.25;4913425;28;7249;-78
2022/07/19 09:07:35;;;;;;;;;;;;;;;43.86;18.18;100629.25;4925317;28;7025;-77
2022/07/19 09:10:19;;;;;;;;;;;;;;;44.17;17.94;100627.31;4952510;28;6796;-78
2022/07/19 09:13:11;;;;;;;;;;;;;;;44.59;17.36;100631.59;4942761;28;6974;-78
2022/07/19 09:15:39;;;;;;;;;;;;;;;44.95;16.89;100631.81;4949481;28;7533;-78
2022/07/19 09:18:34;;;;;;;;;;;;;;;45.31;16.69;100627.59;4938276;28;7233;-77
2022/07/19 09:21:06;;;;;;;;;;;;;;;45.73;16.57;100621.69;4941215;28;7056;-78
2022/07/19 09:23:33;;;;;;;;;;;;;;;46.05;15.92;100623.03;4934267;28;6804;-78
2022/07/19 09:26:05;;;;;;;;;;;;;;;46.29;15.45;100621.59;4922234;28;6796;-78
2022/07/19 09:28:35;;;;;;;;;;;;;;;46.51;15.40;100621.28;4934849;28;6804;-78
2022/07/19 09:31:04;;;;;;;;;;;;;;;46.66;15.27;100619.69;4924682;28;6894;-78
2022/07/19 09:33:32;;;;;;;;;;;;;;;46.75;14.72;100615.19;4929061;28;7134;-78
2022/07/19 09:36:11;;;;;;;;;;;;;;;46.85;14.65;100613.22;4952461;28;7104;-78
2022/07/19 09:38:37;;;;;;;;;;;;;;;46.99;14.39;100611.81;4948906;28;7215;-78
2022/07/19 09:41:06;;;;;;;;;;;;;;;47.07;14.57;100604.72;4937175;28;6793;-78
2022/07/19 09:43:47;;;;;;;;;;;;;;;47.19;14.34;100618.84;4934758;28;6941;-78
2022/07/19 09:46:36;;;;;;;;;;;;;;;47.36;14.21;100607.06;4929103;28;6812;-78
2022/07/19 09:49:12;;;;;;;;;;;;;;;47.57;14.08;100608.50;4942463;28;8447;-77
2022/07/19 09:51:52;;;;;;;;;;;;;;;47.67;13.68;100601.06;4943805;28;7284;-78
2022/07/19 09:54:27;;;;;;;;;;;;;;;47.68;13.76;100597.31;4915065;28;7093;-78
2022/07/19 09:56:56;;;;;;;;;;;;;;;47.73;13.61;100601.44;4949031;28;7913;-78
2022/07/19 09:59:25;;;;;;;;;;;;;;;47.84;13.43;100592.97;4927001;28;7425;-78
2022/07/19 10:01:54;;;;;;;;;;;;;;;48.06;13.06;100604.19;4949704;28;6959;-78
2022/07/19 10:04:24;;;;;;;;;;;;;;;48.28;12.86;100596.41;4933767;28;7245;-78
2022/07/19 10:06:52;;;;;;;;;;;;;;;48.45;12.71;100597.25;4942789;28;7745;-78
2022/07/19 10:09:21;;;;;;;;;;;;;;;48.48;12.33;100591.50;4927495;29;6796;-78
2022/07/19 10:11:47;;;;;;;;;;;;;;;48.57;12.10;100595.91;4919780;28;6820;-78
2022/07/19 10:14:13;;;;;;;;;;;;;;;48.77;12.04;100588.19;4923071;28;7567;-77
2022/07/19 10:16:48;;;;;;;;;;;;;;;49.05;11.95;100592.38;4927883;28;7197;-78
2022/07/19 10:19:49;;;;;;;;;;;;;;;49.27;11.51;100579.06;4932529;28;6784;-77
2022/07/19 10:22:23;;;;;;;;;;;;;;;49.43;11.49;100575.38;4917852;28;7497;-78
2022/07/19 10:25:09;;;;;;;;;;;;;;;49.50;11.49;100570.06;4934221;28;6820;-78
2022/07/19 10:27:40;;;;;;;;;;;;;;;49.61;11.51;100570.53;4937476;28;7025;-77
2022/07/19 10:30:12;;;;;;;;;;;;;;;49.63;11.35;100567.66;4925610;28;6816;-78
2022/07/19 10:32:45;;;;;;;;;;;;;;;49.69;11.35;100563.34;4926372;28;6947;-77
2022/07/19 10:35:27;;;;;;;;;;;;;;;49.85;11.32;100557.78;4930555;28;6955;-77
2022/07/19 10:38:00;;;;;;;;;;;;;;;50.15;11.14;100563.34;4953158;28;6989;-77
2022/07/19 10:40:47;;;;;;;;;;;;;;;50.46;10.85;100549.78;4927764;28;6959;-77
2022/07/19 10:43:21;;;;;;;;;;;;;;;50.54;10.59;100553.25;4943457;28;7064;-77
2022/07/19 10:46:01;;;;;;;;;;;;;;;50.59;10.76;100549.97;4917490;28;7302;-77
2022/07/19 10:48:49;;;;;;;;;;;;;;;50.64;10.79;100550.25;4957555;28;7246;-77
2022/07/19 10:51:33;;;;;;;;;;;;;;;50.81;10.65;100541.91;4922096;28;7194;-78
2022/07/19 10:54:10;;;;;;;;;;;;;;;50.93;10.57;100542.25;4924263;28;7002;-78
2022/07/19 10:56:38;;;;;;;;;;;;;;;50.91;10.39;100538.88;4922645;28;8175;-77
2022/07/19 10:59:07;;;;;;;;;;;;;;;50.81;10.61;100537.28;4941246;28;7887;-78
2022/07/19 11:01:35;;;;;;;;;;;;;;;50.76;10.38;100530.72;4937584;28;7263;-78
2022/07/19 11:04:28;;;;;;;;;;;;;;;50.65;10.16;100537.47;4945030;28;8418;-78
2022/07/19 11:07:23;;;;;;;;;;;;;;;50.44;10.30;100537.19;4951555;28;7189;-79
2022/07/19 11:09:52;;;;;;;;;;;;;;;50.35;10.35;100529.28;4927500;28;8840;-78
2022/07/19 11:12:20;;;;;;;;;;;;;;;50.34;10.25;100528.44;4942888;28;8252;-79
2022/07/19 11:14:46;;;;;;;;;;;;;;;50.33;10.20;100515.84;4928943;28;6971;-78
2022/07/19 11:17:11;;;;;;;;;;;;;;;50.43;10.23;100508.25;4956500;28;7308;-77
2022/07/19 11:19:37;;;;;;;;;;;;;;;50.37;10.24;100509.00;4941720;28;7395;-76
2022/07/19 11:22:02;;;;;;;;;;;;;;;50.27;10.40;100502.94;4953164;28;6910;-76
2022/07/19 11:24:28;;;;;;;;;;;;;;;50.29;10.00;100496.31;4937158;28;6807;-77
2022/07/19 11:26:53;;;;;;;;;;;;;;;50.31;10.12;100498.81;4944004;28;6829;-77
2022/07/19 11:29:20;;;;;;;;;;;;;;;50.28;9.99;100493.72;4916758;28;6998;-78
2022/07/19 11:31:50;;;;;;;;;;;;;;;50.21;9.88;100492.78;4942523;28;6960;-78
2022/07/19 11:34:16;;;;;;;;;;;;;;;50.16;9.70;100493.34;4926577;28;6891;-77
2022/07/19 11:36:41;;;;;;;;;;;;;;;50.18;9.81;100485.84;4952790;28;6994;-77
2022/07/19 11:39:07;;;;;;;;;;;;;;;50.27;9.51;100481.16;4958754;28;7173;-76
2022/07/19 11:41:33;;;;;;;;;;;;;;;50.33;9.63;100480.44;4924291;28;7809;-77
2022/07/19 11:44:00;;;;;;;;;;;;;;;50.29;9.69;100479.97;4911949;28;6856;-77
2022/07/19 11:46:31;;;;;;;;;;;;;;;50.26;9.64;100471.28;4927818;28;6963;-77
2022/07/19 11:48:59;;;;;;;;;;;;;;;50.27;9.44;100471.09;4930921;28;6851;-77
2022/07/19 11:51:25;;;;;;;;;;;;;;;50.22;9.04;100461.78;4944598;28;6994;-76
2022/07/19 11:53:54;;;;;;;;;;;;;;;50.14;9.01;100465.44;4949862;28;6800;-77
2022/07/19 11:56:23;;;;;;;;;;;;;;;50.11;9.38;100458.47;4942459;28;6788;-77
2022/07/19 11:58:53;;;;;;;;;;;;;;;50.17;9.42;100460.47;4930398;28;6796;-77
2022/07/19 12:01:24;;;;;;;;;;;;;;;50.32;9.54;100453.38;4948929;28;7172;-78
2022/07/19 12:04:00;;;;;;;;;;;;;;;50.31;9.09;100460.69;4922687;28;6784;-78
2022/07/19 12:06:42;;;;;;;;;;;;;;;50.23;9.01;100453.41;4930012;28;7037;-77
2022/07/19 12:09:12;;;;;;;;;;;;;;;50.24;9.09;100449.66;4922431;28;7628;-78
2022/07/19 12:11:44;;;;;;;;;;;;;;;50.32;8.84;100451.47;4930262;28;6908;-77
2022/07/19 12:14:25;;;;;;;;;;;;;;;50.32;8.75;100448.75;4921847;28;7012;-77
2022/07/19 12:17:12;;;;;;;;;;;;;;;50.30;8.58;100439.91;4924381;28;7123;-77
2022/07/19 12:19:40;;;;;;;;;;;;;;;50.14;8.41;100433.63;4937779;28;7252;-80
2022/07/19 12:22:06;;;;;;;;;;;;;;;49.98;8.62;100433.78;4921338;28;7005;-78
2022/07/19 12:24:42;;;;;;;;;;;;;;;49.89;8.67;100442.00;4912588;29;6777;-77
2022/07/19 12:27:09;;;;;;;;;;;;;;;49.94;8.84;100437.94;4911677;28;7182;-77
2022/07/19 12:29:44;;;;;;;;;;;;;;;50.04;9.01;100422.16;4907093;29;7029;-77
2022/07/19 12:32:13;;;;;;;;;;;;;;;50.13;9.04;100431.94;4948220;28;6982;-78
2022/07/19 12:34:50;;;;;;;;;;;;;;;50.26;9.37;100427.69;4956342;28;7034;-77
2022/07/19 12:37:28;;;;;;;;;;;;;;;50.40;9.07;100421.41;4912638;28;8526;-79
2022/07/19 12:40:11;;;;;;;;;;;;;;;50.36;8.69;100425.56;4950373;28;7006;-77
2022/07/19 12:42:36;;;;;;;;;;;;;;;50.21;8.55;100411.03;4941177;28;6994;-76
2022/07/19 12:45:05;;;;;;;;;;;;;;;50.16;8.69;100401.56;4952315;28;6969;-77
2022/07/19 12:47:30;;;;;;;;;;;;;;;50.09;8.74;100406.06;4926127;28;6792;-75
2022/07/19 12:49:56;;;;;;;;;;;;;;;50.01;8.82;100400.72;4945815;28;6964;-75
2022/07/19 12:52:21;;;;;;;;;;;;;;;50.02;8.75;100406.00;4936576;28;7227;-75
2022/07/19 12:54:47;;;;;;;;;;;;;;;50.01;8.97;100408.88;4938133;28;7259;-76
2022/07/19 12:57:12;;;;;;;;;;;;;;;49.85;8.89;100402.56;4956700;28;6980;-77
2022/07/19 12:59:40;;;;;;;;;;;;;;;49.59;8.78;100406.56;4935742;28;7686;-76